createdAt,value
2023-03-29T00:00:24.596Z,2.98
2023-03-29T00:02:55.864Z,3.33
2023-03-29T00:05:25.406Z,3.20
2023-03-29T00:07:54.819Z,3.00
2023-03-29T00:10:24.285Z,3.30
2023-03-29T00:12:53.899Z,3.00
2023-03-29T00:15:23.301Z,3.02
2023-03-29T00:17:53.095Z,3.25
2023-03-29T00:20:22.749Z,3.02
2023-03-29T00:22:52.029Z,3.20
2023-03-29T00:25:21.754Z,3.33
2023-03-29T00:27:51.207Z,3.37
2023-03-29T00:30:21.000Z,2.98
2023-03-29T00:32:51.591Z,3.12
2023-03-29T00:35:21.073Z,3.30
2023-03-29T00:37:52.332Z,3.00
2023-03-29T00:40:21.708Z,3.58
2023-03-29T00:42:51.227Z,3.20
2023-03-29T00:45:23.392Z,3.20
2023-03-29T00:47:58.318Z,3.40
2023-03-29T00:50:30.960Z,3.33
2023-03-29T00:53:06.484Z,3.42
2023-03-29T00:55:38.579Z,3.30
2023-03-29T00:58:12.206Z,3.27
2023-03-29T01:00:44.808Z,3.22
2023-03-29T01:03:17.933Z,3.10
2023-03-29T01:05:49.547Z,3.05
2023-03-29T01:08:33.081Z,3.77
2023-03-29T01:11:17.684Z,3.70
2023-03-29T01:13:56.542Z,3.80
2023-03-29T01:16:28.460Z,3.40
2023-03-29T01:19:02.320Z,3.27
2023-03-29T01:21:51.502Z,3.75
2023-03-29T01:24:26.843Z,3.62
2023-03-29T01:27:08.398Z,3.30
2023-03-29T01:29:47.085Z,3.50
2023-03-29T01:32:19.053Z,3.30
2023-03-29T01:34:54.208Z,4.10
2023-03-29T01:37:32.945Z,3.60
2023-03-29T01:40:04.300Z,3.47
2023-03-29T01:42:37.132Z,3.85
2023-03-29T01:45:18.678Z,3.65
2023-03-29T01:47:54.606Z,3.58
2023-03-29T01:50:29.853Z,3.87
2023-03-29T01:53:02.099Z,3.50
2023-03-29T01:55:38.597Z,3.58
2023-03-29T01:58:09.456Z,3.55
2023-03-29T02:00:40.012Z,3.52
2023-03-29T02:03:10.659Z,3.67
2023-03-29T02:05:42.358Z,3.40
2023-03-29T02:08:14.401Z,3.47
2023-03-29T02:10:43.872Z,3.45
2023-03-29T02:13:13.326Z,3.30
2023-03-29T02:15:44.710Z,3.60
2023-03-29T02:18:16.391Z,3.42
2023-03-29T02:20:48.606Z,3.62
2023-03-29T02:23:27.315Z,3.65
2023-03-29T02:25:57.233Z,3.35
2023-03-29T02:28:28.015Z,3.40
2023-03-29T02:31:19.044Z,3.52
2023-03-29T02:34:03.453Z,3.60
2023-03-29T02:36:44.021Z,3.60
2023-03-29T02:39:15.761Z,3.40
2023-03-29T02:41:47.950Z,3.60
2023-03-29T02:44:22.283Z,4.08
2023-03-29T02:46:54.691Z,3.37
2023-03-29T02:49:24.396Z,3.33
2023-03-29T02:51:56.747Z,3.40
2023-03-29T02:54:30.010Z,3.40
2023-03-29T02:57:02.585Z,3.60
2023-03-29T02:59:32.364Z,3.60
2023-03-29T03:02:03.387Z,3.30
2023-03-29T03:04:35.753Z,3.25
2023-03-29T03:07:05.849Z,3.58
2023-03-29T03:09:35.644Z,3.80
2023-03-29T03:12:05.543Z,3.62
2023-03-29T03:14:35.129Z,3.47
2023-03-29T03:17:04.971Z,3.85
2023-03-29T03:19:34.947Z,3.77
2023-03-29T03:22:06.039Z,3.55
2023-03-29T03:24:35.565Z,3.47
2023-03-29T03:27:05.179Z,3.77
2023-03-29T03:29:35.992Z,4.08
2023-03-29T03:32:16.376Z,3.98
2023-03-29T03:35:05.602Z,3.60
2023-03-29T03:37:35.989Z,3.80
2023-03-29T03:40:08.939Z,3.87
2023-03-29T03:42:39.242Z,3.67
2023-03-29T03:45:10.704Z,4.08
2023-03-29T03:47:51.922Z,4.10
2023-03-29T03:50:28.675Z,4.00
2023-03-29T03:52:58.597Z,3.55
2023-03-29T03:55:30.147Z,4.00
2023-03-29T03:58:08.088Z,3.77
2023-03-29T04:00:37.692Z,3.92
2023-03-29T04:03:08.957Z,3.90
2023-03-29T04:05:42.122Z,3.95
2023-03-29T04:08:13.291Z,3.95
2023-03-29T04:10:45.189Z,3.92
2023-03-29T04:13:16.150Z,4.30
2023-03-29T04:15:49.194Z,4.08
2023-03-29T04:18:18.618Z,4.28
2023-03-29T04:20:50.181Z,3.95
2023-03-29T04:23:20.887Z,4.17
2023-03-29T04:25:52.909Z,4.40
2023-03-29T04:28:24.186Z,4.50
2023-03-29T04:30:55.298Z,4.45
2023-03-29T04:33:46.677Z,4.05
2023-03-29T04:36:16.502Z,4.50
2023-03-29T04:38:48.087Z,4.62
2023-03-29T04:41:18.451Z,4.23
2023-03-29T04:43:53.685Z,4.47
2023-03-29T04:46:27.592Z,4.10
2023-03-29T04:49:15.251Z,4.90
2023-03-29T04:51:46.441Z,4.40
2023-03-29T04:54:17.909Z,4.53
2023-03-29T04:57:08.812Z,4.67
2023-03-29T04:59:40.211Z,4.90
2023-03-29T05:02:11.810Z,5.28
2023-03-29T05:04:43.121Z,5.22
2023-03-29T05:07:15.325Z,4.67
2023-03-29T05:09:44.616Z,5.15
2023-03-29T05:12:14.151Z,5.20
2023-03-29T05:14:56.888Z,5.30
2023-03-29T05:17:28.254Z,4.80
2023-03-29T05:19:59.524Z,5.10
2023-03-29T05:22:30.273Z,5.15
2023-03-29T05:24:59.657Z,5.05
2023-03-29T05:27:29.784Z,5.40
2023-03-29T05:30:01.989Z,4.85
2023-03-29T05:32:32.979Z,4.92
2023-03-29T05:35:02.871Z,5.08
2023-03-29T05:37:36.975Z,4.78
2023-03-29T05:40:08.558Z,4.95
2023-03-29T05:42:39.582Z,5.05
2023-03-29T05:45:11.683Z,5.12
2023-03-29T05:47:42.419Z,4.90
2023-03-29T05:50:12.227Z,5.20
2023-03-29T05:52:43.251Z,5.28
2023-03-29T05:55:14.355Z,4.93
2023-03-29T05:57:43.711Z,5.33
2023-03-29T06:00:22.016Z,5.00
2023-03-29T06:02:53.813Z,5.20
2023-03-29T06:05:25.079Z,5.12
2023-03-29T06:07:59.239Z,5.58
2023-03-29T06:10:39.563Z,5.03
2023-03-29T06:13:13.819Z,5.20
2023-03-29T06:15:43.245Z,5.50
2023-03-29T06:18:13.021Z,4.95
2023-03-29T06:20:42.707Z,5.25
2023-03-29T06:23:14.049Z,5.35
2023-03-29T06:25:45.241Z,5.72
2023-03-29T06:28:16.444Z,5.42
2023-03-29T06:30:47.542Z,5.47
2023-03-29T06:33:18.631Z,5.10
2023-03-29T06:35:50.831Z,5.37
2023-03-29T06:38:22.651Z,5.47
2023-03-29T06:41:05.211Z,5.70
2023-03-29T06:43:51.593Z,5.75
2023-03-29T06:46:23.188Z,5.58
2023-03-29T06:48:54.519Z,5.43
2023-03-29T06:51:24.476Z,5.90
2023-03-29T06:53:54.041Z,5.75
2023-03-29T06:56:24.200Z,5.70
2023-03-29T06:59:01.153Z,5.22
2023-03-29T07:01:41.643Z,5.72
2023-03-29T07:04:13.247Z,5.62
2023-03-29T07:07:02.197Z,5.78
2023-03-29T07:12:24.536Z,5.85
2023-03-29T07:14:55.856Z,5.70
2023-03-29T07:17:27.634Z,6.03
2023-03-29T07:19:57.043Z,6.35
2023-03-29T07:22:34.294Z,5.60
2023-03-29T07:25:03.951Z,5.87
2023-03-29T07:27:34.193Z,6.10
2023-03-29T07:30:06.661Z,5.80
2023-03-29T07:32:36.739Z,6.12
2023-03-29T07:35:23.657Z,6.62
2023-03-29T07:37:54.948Z,6.65
2023-03-29T07:40:26.600Z,6.37
2023-03-29T07:42:58.738Z,6.80
2023-03-29T07:45:30.109Z,6.80
2023-03-29T07:48:02.220Z,7.00
2023-03-29T07:50:33.304Z,6.50
2023-03-29T07:53:04.516Z,6.85
2023-03-29T07:55:34.409Z,6.95
2023-03-29T07:58:11.184Z,6.85
2023-03-29T08:00:41.533Z,6.47
2023-03-29T08:03:13.523Z,6.78
2023-03-29T08:05:43.766Z,6.33
2023-03-29T08:08:15.178Z,7.05
2023-03-29T08:10:49.691Z,7.00
2023-03-29T08:13:35.766Z,6.58
2023-03-29T08:16:19.277Z,6.65
2023-03-29T08:18:50.554Z,6.72
2023-03-29T08:21:20.460Z,6.42
2023-03-29T08:23:51.187Z,6.90
2023-03-29T08:26:22.259Z,7.12
2023-03-29T08:28:52.318Z,6.92
2023-03-29T08:31:22.002Z,7.08
2023-03-29T08:33:51.645Z,6.80
2023-03-29T08:36:28.650Z,6.17
2023-03-29T08:38:59.681Z,7.20
2023-03-29T08:41:38.433Z,7.12
2023-03-29T08:44:14.462Z,7.20
2023-03-29T08:47:15.463Z,7.17
2023-03-29T08:49:48.801Z,7.33
2023-03-29T08:52:33.194Z,7.70
2023-03-29T08:55:09.978Z,6.80
2023-03-29T08:57:46.484Z,6.78
2023-03-29T09:00:32.871Z,7.22
2023-03-29T09:03:03.778Z,7.42
2023-03-29T09:05:36.070Z,7.35
2023-03-29T09:08:17.491Z,7.85
2023-03-29T09:10:51.101Z,7.55
2023-03-29T09:13:40.750Z,7.97
2023-03-29T09:16:16.673Z,8.68
2023-03-29T09:18:49.888Z,9.65
2023-03-29T09:21:22.639Z,9.30
2023-03-29T09:24:15.828Z,10.10
2023-03-29T09:27:08.850Z,10.13
2023-03-29T09:29:46.193Z,10.15
2023-03-29T09:32:22.391Z,9.78
2023-03-29T09:35:06.486Z,9.68
2023-03-29T09:37:38.100Z,10.13
2023-03-29T09:40:15.906Z,10.60
2023-03-29T09:42:47.049Z,9.98
2023-03-29T09:45:17.946Z,10.72
2023-03-29T09:47:52.287Z,11.08
2023-03-29T09:50:31.394Z,11.22
2023-03-29T09:52:56.935Z,11.97
2023-03-29T09:55:30.519Z,12.07
2023-03-29T09:58:05.222Z,13.80
2023-03-29T10:00:36.935Z,13.48
2023-03-29T10:03:08.066Z,14.05
